sensor_id;sensor_type;location;lat;lon;timestamp;P1;durP1;ratioP1;P2;durP2;ratioP2
32038;SDS011;18549;42.286;22.688;2024-03-02T00:01:14;19.83;;;14.23;;
32038;SDS011;18549;42.286;22.688;2024-03-02T00:03:42;18.27;;;12.20;;
32038;SDS011;18549;42.286;22.688;2024-03-02T00:06:09;16.80;;;10.63;;
32038;SDS011;18549;42.286;22.688;2024-03-02T00:08:38;18.10;;;11.53;;
32038;SDS011;18549;42.286;22.688;2024-03-02T00:11:05;21.23;;;13.50;;
32038;SDS011;18549;42.286;22.688;2024-03-02T00:13:32;22.07;;;14.10;;
32038;SDS011;18549;42.286;22.688;2024-03-02T00:16:00;26.87;;;15.93;;
32038;SDS011;18549;42.286;22.688;2024-03-02T00:18:33;21.97;;;15.77;;
32038;SDS011;18549;42.286;22.688;2024-03-02T00:21:01;18.23;;;12.50;;
32038;SDS011;18549;42.286;22.688;2024-03-02T00:23:30;15.33;;;11.70;;
32038;SDS011;18549;42.286;22.688;2024-03-02T00:25:58;18.47;;;12.03;;
32038;SDS011;18549;42.286;22.688;2024-03-02T00:28:26;12.43;;;10.43;;
32038;SDS011;18549;42.286;22.688;2024-03-02T00:30:56;21.60;;;11.00;;
32038;SDS011;18549;42.286;22.688;2024-03-02T00:33:26;17.37;;;11.43;;
32038;SDS011;18549;42.286;22.688;2024-03-02T00:35:54;15.00;;;10.57;;
32038;SDS011;18549;42.286;22.688;2024-03-02T00:38:22;15.67;;;9.47;;
32038;SDS011;18549;42.286;22.688;2024-03-02T00:40:49;18.43;;;11.20;;
32038;SDS011;18549;42.286;22.688;2024-03-02T00:43:28;14.90;;;10.40;;
32038;SDS011;18549;42.286;22.688;2024-03-02T00:46:09;15.60;;;10.90;;
32038;SDS011;18549;42.286;22.688;2024-03-02T00:48:37;15.37;;;10.67;;
32038;SDS011;18549;42.286;22.688;2024-03-02T00:51:05;15.40;;;9.87;;
32038;SDS011;18549;42.286;22.688;2024-03-02T00:53:32;25.03;;;14.47;;
32038;SDS011;18549;42.286;22.688;2024-03-02T00:55:58;24.13;;;14.07;;
32038;SDS011;18549;42.286;22.688;2024-03-02T00:58:28;14.60;;;9.43;;
32038;SDS011;18549;42.286;22.688;2024-03-02T01:00:54;7.83;;;7.03;;
32038;SDS011;18549;42.286;22.688;2024-03-02T01:03:21;9.30;;;6.00;;
32038;SDS011;18549;42.286;22.688;2024-03-02T01:05:49;8.57;;;5.73;;
32038;SDS011;18549;42.286;22.688;2024-03-02T01:08:16;7.70;;;5.33;;
32038;SDS011;18549;42.286;22.688;2024-03-02T01:10:42;7.83;;;6.13;;
32038;SDS011;18549;42.286;22.688;2024-03-02T01:13:08;10.00;;;5.27;;
32038;SDS011;18549;42.286;22.688;2024-03-02T01:15:36;5.67;;;5.07;;
32038;SDS011;18549;42.286;22.688;2024-03-02T01:18:03;11.17;;;5.77;;
32038;SDS011;18549;42.286;22.688;2024-03-02T01:20:30;6.80;;;4.87;;
32038;SDS011;18549;42.286;22.688;2024-03-02T01:22:57;5.47;;;4.37;;
32038;SDS011;18549;42.286;22.688;2024-03-02T01:25:24;7.17;;;4.40;;
32038;SDS011;18549;42.286;22.688;2024-03-02T01:27:51;9.60;;;5.60;;
32038;SDS011;18549;42.286;22.688;2024-03-02T01:30:17;11.10;;;6.80;;
32038;SDS011;18549;42.286;22.688;2024-03-02T01:32:46;7.87;;;4.60;;
32038;SDS011;18549;42.286;22.688;2024-03-02T01:35:12;6.37;;;4.90;;
32038;SDS011;18549;42.286;22.688;2024-03-02T01:37:40;8.77;;;5.30;;
32038;SDS011;18549;42.286;22.688;2024-03-02T01:40:07;8.83;;;5.80;;
32038;SDS011;18549;42.286;22.688;2024-03-02T01:42:35;8.80;;;5.27;;
32038;SDS011;18549;42.286;22.688;2024-03-02T01:45:03;6.30;;;4.37;;
32038;SDS011;18549;42.286;22.688;2024-03-02T01:47:31;8.43;;;5.30;;
32038;SDS011;18549;42.286;22.688;2024-03-02T01:49:59;5.97;;;4.47;;
32038;SDS011;18549;42.286;22.688;2024-03-02T01:52:26;5.80;;;5.20;;
32038;SDS011;18549;42.286;22.688;2024-03-02T01:54:54;10.43;;;5.97;;
32038;SDS011;18549;42.286;22.688;2024-03-02T01:57:21;14.67;;;7.70;;
32038;SDS011;18549;42.286;22.688;2024-03-02T01:59:48;16.70;;;9.70;;
32038;SDS011;18549;42.286;22.688;2024-03-02T02:02:15;15.70;;;10.53;;
32038;SDS011;18549;42.286;22.688;2024-03-02T02:04:42;13.80;;;11.50;;
32038;SDS011;18549;42.286;22.688;2024-03-02T02:07:11;14.13;;;10.87;;
32038;SDS011;18549;42.286;22.688;2024-03-02T02:09:39;17.63;;;13.87;;
32038;SDS011;18549;42.286;22.688;2024-03-02T02:12:06;17.03;;;12.87;;
32038;SDS011;18549;42.286;22.688;2024-03-02T02:14:33;15.00;;;12.00;;
32038;SDS011;18549;42.286;22.688;2024-03-02T02:17:00;16.73;;;12.80;;
32038;SDS011;18549;42.286;22.688;2024-03-02T02:19:26;16.50;;;12.80;;
32038;SDS011;18549;42.286;22.688;2024-03-02T02:21:54;17.97;;;12.70;;
32038;SDS011;18549;42.286;22.688;2024-03-02T02:24:21;16.97;;;12.40;;
32038;SDS011;18549;42.286;22.688;2024-03-02T02:26:48;18.70;;;12.40;;
32038;SDS011;18549;42.286;22.688;2024-03-02T02:29:15;14.53;;;10.57;;
32038;SDS011;18549;42.286;22.688;2024-03-02T02:31:42;12.90;;;9.83;;
32038;SDS011;18549;42.286;22.688;2024-03-02T02:34:09;16.60;;;12.57;;
32038;SDS011;18549;42.286;22.688;2024-03-02T02:36:36;16.47;;;12.47;;
32038;SDS011;18549;42.286;22.688;2024-03-02T02:39:05;16.50;;;12.10;;
32038;SDS011;18549;42.286;22.688;2024-03-02T02:41:35;18.83;;;11.63;;
32038;SDS011;18549;42.286;22.688;2024-03-02T02:44:05;16.10;;;11.83;;
32038;SDS011;18549;42.286;22.688;2024-03-02T02:46:32;14.17;;;10.73;;
32038;SDS011;18549;42.286;22.688;2024-03-02T02:48:58;13.73;;;10.80;;
32038;SDS011;18549;42.286;22.688;2024-03-02T02:51:25;17.07;;;11.23;;
32038;SDS011;18549;42.286;22.688;2024-03-02T02:53:52;17.33;;;11.03;;
32038;SDS011;18549;42.286;22.688;2024-03-02T02:56:20;17.03;;;12.63;;
32038;SDS011;18549;42.286;22.688;2024-03-02T02:58:47;18.23;;;12.73;;
32038;SDS011;18549;42.286;22.688;2024-03-02T03:01:14;16.07;;;12.67;;
32038;SDS011;18549;42.286;22.688;2024-03-02T03:03:42;21.03;;;14.43;;
32038;SDS011;18549;42.286;22.688;2024-03-02T03:06:08;21.20;;;14.87;;
32038;SDS011;18549;42.286;22.688;2024-03-02T03:08:35;23.73;;;14.53;;
32038;SDS011;18549;42.286;22.688;2024-03-02T03:11:02;18.70;;;13.53;;
32038;SDS011;18549;42.286;22.688;2024-03-02T03:13:31;17.90;;;11.77;;
32038;SDS011;18549;42.286;22.688;2024-03-02T03:15:58;13.93;;;10.60;;
32038;SDS011;18549;42.286;22.688;2024-03-02T03:18:25;12.37;;;10.07;;
32038;SDS011;18549;42.286;22.688;2024-03-02T03:20:51;11.13;;;9.23;;
32038;SDS011;18549;42.286;22.688;2024-03-02T03:23:18;13.90;;;8.70;;
32038;SDS011;18549;42.286;22.688;2024-03-02T03:25:45;12.07;;;8.30;;
32038;SDS011;18549;42.286;22.688;2024-03-02T03:28:12;15.83;;;10.03;;
32038;SDS011;18549;42.286;22.688;2024-03-02T03:30:40;12.73;;;8.33;;
32038;SDS011;18549;42.286;22.688;2024-03-02T03:33:07;12.27;;;9.60;;
32038;SDS011;18549;42.286;22.688;2024-03-02T03:35:34;10.83;;;7.83;;
32038;SDS011;18549;42.286;22.688;2024-03-02T03:38:00;11.33;;;7.33;;
32038;SDS011;18549;42.286;22.688;2024-03-02T03:40:27;7.80;;;6.40;;
32038;SDS011;18549;42.286;22.688;2024-03-02T03:42:54;8.23;;;5.93;;
32038;SDS011;18549;42.286;22.688;2024-03-02T03:45:21;8.10;;;5.47;;
32038;SDS011;18549;42.286;22.688;2024-03-02T03:47:52;7.23;;;5.40;;
32038;SDS011;18549;42.286;22.688;2024-03-02T03:50:19;7.00;;;5.80;;
32038;SDS011;18549;42.286;22.688;2024-03-02T03:52:46;8.83;;;6.10;;
32038;SDS011;18549;42.286;22.688;2024-03-02T03:55:12;9.30;;;7.27;;
32038;SDS011;18549;42.286;22.688;2024-03-02T03:57:40;8.97;;;7.17;;
32038;SDS011;18549;42.286;22.688;2024-03-02T04:00:07;7.57;;;5.90;;
32038;SDS011;18549;42.286;22.688;2024-03-02T04:02:36;11.53;;;7.03;;
32038;SDS011;18549;42.286;22.688;2024-03-02T04:05:05;7.67;;;6.03;;
32038;SDS011;18549;42.286;22.688;2024-03-02T04:07:34;11.90;;;6.33;;
32038;SDS011;18549;42.286;22.688;2024-03-02T04:10:06;9.57;;;6.57;;
32038;SDS011;18549;42.286;22.688;2024-03-02T04:12:34;10.27;;;7.13;;
32038;SDS011;18549;42.286;22.688;2024-03-02T04:15:02;8.70;;;6.70;;
32038;SDS011;18549;42.286;22.688;2024-03-02T04:17:31;10.60;;;7.30;;
32038;SDS011;18549;42.286;22.688;2024-03-02T04:19:58;9.37;;;7.23;;
32038;SDS011;18549;42.286;22.688;2024-03-02T04:22:27;8.70;;;6.03;;
32038;SDS011;18549;42.286;22.688;2024-03-02T04:24:54;9.00;;;6.57;;
32038;SDS011;18549;42.286;22.688;2024-03-02T04:27:20;6.80;;;4.53;;
32038;SDS011;18549;42.286;22.688;2024-03-02T04:29:47;5.07;;;4.40;;
32038;SDS011;18549;42.286;22.688;2024-03-02T04:32:14;5.43;;;4.57;;
32038;SDS011;18549;42.286;22.688;2024-03-02T04:34:41;5.73;;;4.20;;
32038;SDS011;18549;42.286;22.688;2024-03-02T04:37:11;4.83;;;3.30;;
32038;SDS011;18549;42.286;22.688;2024-03-02T04:39:41;3.07;;;2.60;;
32038;SDS011;18549;42.286;22.688;2024-03-02T04:42:07;4.17;;;3.23;;
32038;SDS011;18549;42.286;22.688;2024-03-02T04:44:34;5.70;;;4.13;;
32038;SDS011;18549;42.286;22.688;2024-03-02T04:47:02;5.60;;;3.93;;
32038;SDS011;18549;42.286;22.688;2024-03-02T04:49:29;5.77;;;3.60;;
32038;SDS011;18549;42.286;22.688;2024-03-02T04:51:56;6.87;;;4.40;;
32038;SDS011;18549;42.286;22.688;2024-03-02T04:54:23;5.77;;;4.87;;
32038;SDS011;18549;42.286;22.688;2024-03-02T04:56:51;5.93;;;4.20;;
32038;SDS011;18549;42.286;22.688;2024-03-02T04:59:18;5.73;;;4.67;;
32038;SDS011;18549;42.286;22.688;2024-03-02T05:01:45;9.57;;;7.17;;
32038;SDS011;18549;42.286;22.688;2024-03-02T05:04:13;12.27;;;9.00;;
32038;SDS011;18549;42.286;22.688;2024-03-02T05:06:40;11.80;;;9.40;;
32038;SDS011;18549;42.286;22.688;2024-03-02T05:09:07;17.20;;;11.57;;
32038;SDS011;18549;42.286;22.688;2024-03-02T05:11:33;18.27;;;12.23;;
32038;SDS011;18549;42.286;22.688;2024-03-02T05:14:29;17.17;;;9.87;;
32038;SDS011;18549;42.286;22.688;2024-03-02T05:16:56;23.93;;;13.10;;
32038;SDS011;18549;42.286;22.688;2024-03-02T05:19:22;12.23;;;9.03;;
32038;SDS011;18549;42.286;22.688;2024-03-02T05:21:50;12.40;;;8.70;;
32038;SDS011;18549;42.286;22.688;2024-03-02T05:24:17;15.07;;;10.40;;
32038;SDS011;18549;42.286;22.688;2024-03-02T05:26:44;14.53;;;10.10;;
32038;SDS011;18549;42.286;22.688;2024-03-02T05:29:10;14.07;;;9.77;;
32038;SDS011;18549;42.286;22.688;2024-03-02T05:31:38;16.13;;;10.97;;
32038;SDS011;18549;42.286;22.688;2024-03-02T05:34:05;16.33;;;11.90;;
32038;SDS011;18549;42.286;22.688;2024-03-02T05:36:32;17.27;;;11.77;;
32038;SDS011;18549;42.286;22.688;2024-03-02T05:38:59;17.93;;;12.10;;
32038;SDS011;18549;42.286;22.688;2024-03-02T05:41:25;16.57;;;10.47;;
32038;SDS011;18549;42.286;22.688;2024-03-02T05:43:52;14.60;;;11.73;;
32038;SDS011;18549;42.286;22.688;2024-03-02T05:46:19;18.27;;;12.63;;
32038;SDS011;18549;42.286;22.688;2024-03-02T05:48:47;16.83;;;11.23;;
32038;SDS011;18549;42.286;22.688;2024-03-02T05:51:15;21.30;;;13.90;;
32038;SDS011;18549;42.286;22.688;2024-03-02T05:53:41;18.70;;;13.83;;
32038;SDS011;18549;42.286;22.688;2024-03-02T05:56:08;15.83;;;12.40;;
32038;SDS011;18549;42.286;22.688;2024-03-02T05:58:35;16.20;;;12.37;;
32038;SDS011;18549;42.286;22.688;2024-03-02T06:01:14;17.67;;;11.67;;
32038;SDS011;18549;42.286;22.688;2024-03-02T06:03:42;14.87;;;11.63;;
32038;SDS011;18549;42.286;22.688;2024-03-02T06:06:10;19.67;;;14.13;;
32038;SDS011;18549;42.286;22.688;2024-03-02T06:08:37;18.90;;;14.03;;
32038;SDS011;18549;42.286;22.688;2024-03-02T06:11:04;25.43;;;16.07;;
32038;SDS011;18549;42.286;22.688;2024-03-02T06:13:31;21.50;;;16.43;;
32038;SDS011;18549;42.286;22.688;2024-03-02T06:15:57;22.33;;;15.93;;
32038;SDS011;18549;42.286;22.688;2024-03-02T06:18:24;23.70;;;18.47;;
32038;SDS011;18549;42.286;22.688;2024-03-02T06:20:51;29.50;;;18.23;;
32038;SDS011;18549;42.286;22.688;2024-03-02T06:23:19;20.80;;;16.20;;
32038;SDS011;18549;42.286;22.688;2024-03-02T06:25:45;37.83;;;23.73;;
32038;SDS011;18549;42.286;22.688;2024-03-02T06:28:12;35.47;;;25.60;;
32038;SDS011;18549;42.286;22.688;2024-03-02T06:30:40;50.90;;;34.27;;
32038;SDS011;18549;42.286;22.688;2024-03-02T06:33:07;55.57;;;36.93;;
32038;SDS011;18549;42.286;22.688;2024-03-02T06:35:33;51.13;;;35.90;;
32038;SDS011;18549;42.286;22.688;2024-03-02T06:38:00;57.97;;;38.47;;
32038;SDS011;18549;42.286;22.688;2024-03-02T06:40:28;61.40;;;38.73;;
32038;SDS011;18549;42.286;22.688;2024-03-02T06:42:55;53.40;;;36.20;;
32038;SDS011;18549;42.286;22.688;2024-03-02T06:45:22;45.87;;;29.17;;
32038;SDS011;18549;42.286;22.688;2024-03-02T06:47:49;47.27;;;28.60;;
32038;SDS011;18549;42.286;22.688;2024-03-02T06:50:15;43.83;;;29.30;;
32038;SDS011;18549;42.286;22.688;2024-03-02T06:52:42;58.77;;;30.03;;
32038;SDS011;18549;42.286;22.688;2024-03-02T06:55:09;40.30;;;27.17;;
32038;SDS011;18549;42.286;22.688;2024-03-02T06:57:39;34.13;;;20.90;;
32038;SDS011;18549;42.286;22.688;2024-03-02T07:00:06;32.20;;;19.97;;
32038;SDS011;18549;42.286;22.688;2024-03-02T07:02:34;21.93;;;17.30;;
32038;SDS011;18549;42.286;22.688;2024-03-02T07:05:01;20.17;;;15.00;;
32038;SDS011;18549;42.286;22.688;2024-03-02T07:07:28;18.63;;;14.70;;
32038;SDS011;18549;42.286;22.688;2024-03-02T07:09:55;25.97;;;18.77;;
32038;SDS011;18549;42.286;22.688;2024-03-02T07:12:22;30.57;;;19.80;;
32038;SDS011;18549;42.286;22.688;2024-03-02T07:14:50;31.73;;;22.97;;
32038;SDS011;18549;42.286;22.688;2024-03-02T07:17:33;47.13;;;30.17;;
32038;SDS011;18549;42.286;22.688;2024-03-02T07:20:00;31.07;;;23.13;;
32038;SDS011;18549;42.286;22.688;2024-03-02T07:22:28;38.60;;;24.07;;
32038;SDS011;18549;42.286;22.688;2024-03-02T07:24:55;33.43;;;18.37;;
32038;SDS011;18549;42.286;22.688;2024-03-02T07:27:22;50.57;;;34.70;;
32038;SDS011;18549;42.286;22.688;2024-03-02T07:29:48;50.80;;;36.73;;
32038;SDS011;18549;42.286;22.688;2024-03-02T07:32:17;56.63;;;38.23;;
32038;SDS011;18549;42.286;22.688;2024-03-02T07:34:43;135.20;;;74.60;;
32038;SDS011;18549;42.286;22.688;2024-03-02T07:37:10;106.00;;;63.03;;
32038;SDS011;18549;42.286;22.688;2024-03-02T07:39:37;95.60;;;62.50;;
32038;SDS011;18549;42.286;22.688;2024-03-02T07:42:04;87.80;;;59.20;;
32038;SDS011;18549;42.286;22.688;2024-03-02T07:44:31;60.07;;;40.47;;
32038;SDS011;18549;42.286;22.688;2024-03-02T07:46:58;43.17;;;34.27;;
32038;SDS011;18549;42.286;22.688;2024-03-02T07:49:26;38.13;;;29.13;;
32038;SDS011;18549;42.286;22.688;2024-03-02T07:51:52;33.70;;;27.13;;
32038;SDS011;18549;42.286;22.688;2024-03-02T07:54:19;26.63;;;21.60;;
32038;SDS011;18549;42.286;22.688;2024-03-02T07:56:46;25.17;;;21.40;;
32038;SDS011;18549;42.286;22.688;2024-03-02T07:59:13;43.63;;;28.43;;
32038;SDS011;18549;42.286;22.688;2024-03-02T08:01:40;44.87;;;29.40;;
32038;SDS011;18549;42.286;22.688;2024-03-02T08:04:06;34.73;;;25.53;;
32038;SDS011;18549;42.286;22.688;2024-03-02T08:06:34;30.73;;;24.77;;
32038;SDS011;18549;42.286;22.688;2024-03-02T08:09:01;36.00;;;21.27;;
32038;SDS011;18549;42.286;22.688;2024-03-02T08:11:29;31.27;;;24.67;;
32038;SDS011;18549;42.286;22.688;2024-03-02T08:13:57;34.07;;;23.40;;
32038;SDS011;18549;42.286;22.688;2024-03-02T08:16:23;30.07;;;22.20;;
32038;SDS011;18549;42.286;22.688;2024-03-02T08:18:50;29.43;;;23.27;;
32038;SDS011;18549;42.286;22.688;2024-03-02T08:21:17;28.93;;;23.47;;
32038;SDS011;18549;42.286;22.688;2024-03-02T08:23:46;28.50;;;22.77;;
32038;SDS011;18549;42.286;22.688;2024-03-02T08:26:12;33.43;;;25.37;;
32038;SDS011;18549;42.286;22.688;2024-03-02T08:28:39;35.97;;;26.70;;
32038;SDS011;18549;42.286;22.688;2024-03-02T08:31:06;28.57;;;24.03;;
32038;SDS011;18549;42.286;22.688;2024-03-02T08:33:32;27.13;;;21.70;;
32038;SDS011;18549;42.286;22.688;2024-03-02T08:35:59;25.67;;;22.50;;
32038;SDS011;18549;42.286;22.688;2024-03-02T08:38:26;28.30;;;22.53;;
32038;SDS011;18549;42.286;22.688;2024-03-02T08:40:55;29.60;;;19.87;;
32038;SDS011;18549;42.286;22.688;2024-03-02T08:43:22;28.67;;;21.60;;
32038;SDS011;18549;42.286;22.688;2024-03-02T08:45:50;29.43;;;22.63;;
32038;SDS011;18549;42.286;22.688;2024-03-02T08:48:16;36.47;;;25.33;;
32038;SDS011;18549;42.286;22.688;2024-03-02T08:50:43;28.00;;;21.33;;
32038;SDS011;18549;42.286;22.688;2024-03-02T08:53:10;26.80;;;19.60;;
32038;SDS011;18549;42.286;22.688;2024-03-02T08:55:37;32.40;;;22.43;;
32038;SDS011;18549;42.286;22.688;2024-03-02T08:58:05;21.43;;;16.00;;
32038;SDS011;18549;42.286;22.688;2024-03-02T09:00:32;144.47;;;78.17;;
32038;SDS011;18549;42.286;22.688;2024-03-02T09:02:59;21.17;;;17.43;;
32038;SDS011;18549;42.286;22.688;2024-03-02T09:05:25;29.20;;;20.63;;
32038;SDS011;18549;42.286;22.688;2024-03-02T09:07:52;24.43;;;17.13;;
32038;SDS011;18549;42.286;22.688;2024-03-02T09:10:19;27.40;;;20.30;;
32038;SDS011;18549;42.286;22.688;2024-03-02T09:12:46;18.43;;;15.70;;
32038;SDS011;18549;42.286;22.688;2024-03-02T09:15:15;22.07;;;15.10;;
32038;SDS011;18549;42.286;22.688;2024-03-02T09:17:42;21.97;;;16.53;;
32038;SDS011;18549;42.286;22.688;2024-03-02T09:20:10;57.17;;;27.17;;
32038;SDS011;18549;42.286;22.688;2024-03-02T09:22:39;37.03;;;25.40;;
32038;SDS011;18549;42.286;22.688;2024-03-02T09:25:07;33.13;;;25.83;;
32038;SDS011;18549;42.286;22.688;2024-03-02T09:27:36;30.80;;;23.97;;
32038;SDS011;18549;42.286;22.688;2024-03-02T09:30:03;33.10;;;27.03;;
32038;SDS011;18549;42.286;22.688;2024-03-02T09:32:32;38.03;;;26.67;;
32038;SDS011;18549;42.286;22.688;2024-03-02T09:34:58;28.47;;;23.20;;
32038;SDS011;18549;42.286;22.688;2024-03-02T09:37:25;26.27;;;18.33;;
32038;SDS011;18549;42.286;22.688;2024-03-02T09:39:53;19.27;;;14.93;;
32038;SDS011;18549;42.286;22.688;2024-03-02T09:42:22;24.03;;;15.90;;
32038;SDS011;18549;42.286;22.688;2024-03-02T09:44:49;25.70;;;14.33;;
32038;SDS011;18549;42.286;22.688;2024-03-02T09:47:16;19.93;;;12.93;;
32038;SDS011;18549;42.286;22.688;2024-03-02T09:49:44;14.33;;;12.33;;
32038;SDS011;18549;42.286;22.688;2024-03-02T09:52:11;15.60;;;9.63;;
32038;SDS011;18549;42.286;22.688;2024-03-02T09:54:39;14.97;;;11.17;;
32038;SDS011;18549;42.286;22.688;2024-03-02T09:57:06;14.90;;;10.73;;
32038;SDS011;18549;42.286;22.688;2024-03-02T09:59:33;14.67;;;11.37;;
32038;SDS011;18549;42.286;22.688;2024-03-02T10:02:00;15.33;;;11.47;;
32038;SDS011;18549;42.286;22.688;2024-03-02T10:04:29;13.73;;;10.90;;
32038;SDS011;18549;42.286;22.688;2024-03-02T10:07:10;15.90;;;9.20;;
32038;SDS011;18549;42.286;22.688;2024-03-02T10:09:38;10.30;;;8.67;;
32038;SDS011;18549;42.286;22.688;2024-03-02T10:12:06;11.67;;;8.60;;
32038;SDS011;18549;42.286;22.688;2024-03-02T10:14:34;16.03;;;10.03;;
32038;SDS011;18549;42.286;22.688;2024-03-02T10:17:04;12.70;;;8.53;;
32038;SDS011;18549;42.286;22.688;2024-03-02T10:19:31;16.23;;;10.00;;
32038;SDS011;18549;42.286;22.688;2024-03-02T10:22:00;11.67;;;8.83;;
32038;SDS011;18549;42.286;22.688;2024-03-02T10:24:34;11.43;;;8.53;;
32038;SDS011;18549;42.286;22.688;2024-03-02T10:27:06;15.03;;;9.73;;
32038;SDS011;18549;42.286;22.688;2024-03-02T10:29:36;16.37;;;10.07;;
32038;SDS011;18549;42.286;22.688;2024-03-02T10:32:04;14.67;;;9.00;;
32038;SDS011;18549;42.286;22.688;2024-03-02T10:34:32;11.20;;;8.30;;
32038;SDS011;18549;42.286;22.688;2024-03-02T10:36:59;12.70;;;9.13;;
32038;SDS011;18549;42.286;22.688;2024-03-02T10:39:26;15.30;;;9.77;;
32038;SDS011;18549;42.286;22.688;2024-03-02T10:41:54;13.20;;;9.07;;
32038;SDS011;18549;42.286;22.688;2024-03-02T10:44:22;18.43;;;10.97;;
32038;SDS011;18549;42.286;22.688;2024-03-02T10:46:50;21.20;;;12.70;;
32038;SDS011;18549;42.286;22.688;2024-03-02T10:49:19;16.03;;;12.13;;
32038;SDS011;18549;42.286;22.688;2024-03-02T10:51:49;15.10;;;11.53;;
32038;SDS011;18549;42.286;22.688;2024-03-02T10:54:16;21.00;;;11.93;;
32038;SDS011;18549;42.286;22.688;2024-03-02T10:56:50;12.53;;;9.97;;
32038;SDS011;18549;42.286;22.688;2024-03-02T10:59:24;19.00;;;9.97;;
32038;SDS011;18549;42.286;22.688;2024-03-02T11:01:55;7.97;;;6.57;;
32038;SDS011;18549;42.286;22.688;2024-03-02T11:04:24;12.00;;;8.33;;
32038;SDS011;18549;42.286;22.688;2024-03-02T11:06:51;19.80;;;9.93;;
32038;SDS011;18549;42.286;22.688;2024-03-02T11:09:21;13.30;;;8.43;;
32038;SDS011;18549;42.286;22.688;2024-03-02T11:11:54;11.40;;;7.87;;
32038;SDS011;18549;42.286;22.688;2024-03-02T11:14:29;11.57;;;6.60;;
32038;SDS011;18549;42.286;22.688;2024-03-02T11:16:59;6.90;;;6.17;;
32038;SDS011;18549;42.286;22.688;2024-03-02T11:19:28;8.03;;;6.30;;
32038;SDS011;18549;42.286;22.688;2024-03-02T11:21:56;14.40;;;8.07;;
32038;SDS011;18549;42.286;22.688;2024-03-02T11:24:30;12.53;;;7.80;;
32038;SDS011;18549;42.286;22.688;2024-03-02T11:26:59;9.10;;;7.57;;
32038;SDS011;18549;42.286;22.688;2024-03-02T11:29:43;9.03;;;6.20;;
32038;SDS011;18549;42.286;22.688;2024-03-02T11:32:14;8.73;;;7.00;;
32038;SDS011;18549;42.286;22.688;2024-03-02T11:34:47;10.90;;;7.13;;
32038;SDS011;18549;42.286;22.688;2024-03-02T11:37:16;10.90;;;6.97;;
32038;SDS011;18549;42.286;22.688;2024-03-02T11:39:44;13.20;;;7.53;;
32038;SDS011;18549;42.286;22.688;2024-03-02T11:42:11;13.87;;;6.60;;
32038;SDS011;18549;42.286;22.688;2024-03-02T11:44:41;9.23;;;6.00;;
32038;SDS011;18549;42.286;22.688;2024-03-02T11:47:11;15.67;;;8.87;;
32038;SDS011;18549;42.286;22.688;2024-03-02T11:49:43;22.80;;;13.03;;
32038;SDS011;18549;42.286;22.688;2024-03-02T11:52:11;10.77;;;6.73;;
32038;SDS011;18549;42.286;22.688;2024-03-02T11:54:40;10.27;;;6.33;;
32038;SDS011;18549;42.286;22.688;2024-03-02T11:57:11;15.90;;;6.97;;
32038;SDS011;18549;42.286;22.688;2024-03-02T11:59:40;9.40;;;6.37;;
32038;SDS011;18549;42.286;22.688;2024-03-02T12:02:13;16.53;;;7.13;;
32038;SDS011;18549;42.286;22.688;2024-03-02T12:04:41;9.27;;;5.60;;
32038;SDS011;18549;42.286;22.688;2024-03-02T12:07:08;12.47;;;8.50;;
32038;SDS011;18549;42.286;22.688;2024-03-02T12:09:36;10.47;;;6.80;;
32038;SDS011;18549;42.286;22.688;2024-03-02T12:12:03;9.63;;;6.47;;
32038;SDS011;18549;42.286;22.688;2024-03-02T12:14:31;18.73;;;11.80;;
32038;SDS011;18549;42.286;22.688;2024-03-02T12:16:58;12.03;;;8.30;;
32038;SDS011;18549;42.286;22.688;2024-03-02T12:19:27;29.80;;;15.33;;
32038;SDS011;18549;42.286;22.688;2024-03-02T12:21:55;30.67;;;17.97;;
32038;SDS011;18549;42.286;22.688;2024-03-02T12:24:22;11.17;;;6.20;;
32038;SDS011;18549;42.286;22.688;2024-03-02T12:26:50;14.27;;;7.75;;
32038;SDS011;18549;42.286;22.688;2024-03-02T12:29:18;13.20;;;6.03;;
32038;SDS011;18549;42.286;22.688;2024-03-02T12:31:47;12.47;;;5.93;;
32038;SDS011;18549;42.286;22.688;2024-03-02T12:34:15;11.43;;;9.07;;
32038;SDS011;18549;42.286;22.688;2024-03-02T12:36:45;15.97;;;7.50;;
32038;SDS011;18549;42.286;22.688;2024-03-02T12:39:14;15.40;;;8.30;;
32038;SDS011;18549;42.286;22.688;2024-03-02T12:41:41;12.47;;;7.43;;
32038;SDS011;18549;42.286;22.688;2024-03-02T12:44:08;12.33;;;7.20;;
32038;SDS011;18549;42.286;22.688;2024-03-02T12:46:35;19.37;;;12.17;;
32038;SDS011;18549;42.286;22.688;2024-03-02T12:49:07;234.97;;;108.27;;
32038;SDS011;18549;42.286;22.688;2024-03-02T12:51:36;42.30;;;33.20;;
32038;SDS011;18549;42.286;22.688;2024-03-02T12:54:03;30.30;;;21.50;;
32038;SDS011;18549;42.286;22.688;2024-03-02T12:56:30;16.58;;;11.48;;
32038;SDS011;18549;42.286;22.688;2024-03-02T12:58:58;16.55;;;10.73;;
32038;SDS011;18549;42.286;22.688;2024-03-02T13:01:25;15.10;;;9.80;;
32038;SDS011;18549;42.286;22.688;2024-03-02T13:03:52;13.48;;;10.02;;
32038;SDS011;18549;42.286;22.688;2024-03-02T13:06:20;19.97;;;13.53;;
32038;SDS011;18549;42.286;22.688;2024-03-02T13:08:48;16.83;;;9.57;;
32038;SDS011;18549;42.286;22.688;2024-03-02T13:11:16;18.60;;;8.37;;
32038;SDS011;18549;42.286;22.688;2024-03-02T13:13:43;10.63;;;7.43;;
32038;SDS011;18549;42.286;22.688;2024-03-02T13:16:10;9.30;;;6.67;;
32038;SDS011;18549;42.286;22.688;2024-03-02T13:18:38;11.70;;;7.97;;
32038;SDS011;18549;42.286;22.688;2024-03-02T13:21:05;11.37;;;5.93;;
32038;SDS011;18549;42.286;22.688;2024-03-02T13:23:31;12.37;;;6.47;;
32038;SDS011;18549;42.286;22.688;2024-03-02T13:26:01;9.23;;;5.87;;
32038;SDS011;18549;42.286;22.688;2024-03-02T13:28:29;10.90;;;6.33;;
32038;SDS011;18549;42.286;22.688;2024-03-02T13:30:56;12.30;;;6.43;;
32038;SDS011;18549;42.286;22.688;2024-03-02T13:33:23;16.03;;;6.27;;
32038;SDS011;18549;42.286;22.688;2024-03-02T13:35:50;15.88;;;8.80;;
32038;SDS011;18549;42.286;22.688;2024-03-02T13:38:17;11.73;;;7.17;;
32038;SDS011;18549;42.286;22.688;2024-03-02T13:40:45;16.33;;;6.73;;
32038;SDS011;18549;42.286;22.688;2024-03-02T13:43:12;7.57;;;5.10;;
32038;SDS011;18549;42.286;22.688;2024-03-02T13:45:40;11.97;;;5.73;;
32038;SDS011;18549;42.286;22.688;2024-03-02T13:48:07;14.43;;;6.00;;
32038;SDS011;18549;42.286;22.688;2024-03-02T13:50:34;10.73;;;5.70;;
32038;SDS011;18549;42.286;22.688;2024-03-02T13:53:01;7.50;;;5.23;;
32038;SDS011;18549;42.286;22.688;2024-03-02T13:55:29;13.00;;;8.53;;
32038;SDS011;18549;42.286;22.688;2024-03-02T13:57:56;11.00;;;6.47;;
32038;SDS011;18549;42.286;22.688;2024-03-02T14:00:26;13.63;;;8.03;;
32038;SDS011;18549;42.286;22.688;2024-03-02T14:02:55;11.37;;;6.57;;
32038;SDS011;18549;42.286;22.688;2024-03-02T14:05:22;10.80;;;5.70;;
32038;SDS011;18549;42.286;22.688;2024-03-02T14:07:48;14.23;;;4.53;;
32038;SDS011;18549;42.286;22.688;2024-03-02T14:10:15;14.63;;;5.27;;
32038;SDS011;18549;42.286;22.688;2024-03-02T14:12:47;11.43;;;5.73;;
32038;SDS011;18549;42.286;22.688;2024-03-02T14:15:13;11.57;;;6.63;;
32038;SDS011;18549;42.286;22.688;2024-03-02T14:17:40;13.17;;;7.10;;
32038;SDS011;18549;42.286;22.688;2024-03-02T14:20:09;10.83;;;7.33;;